YSLT weather

Sale Airport
Victoria, Australia

Public forecast

Using degrees Celsius for public forecast. Weather courtesy of forecast.io.

METAR (pilot weather report)

Closest report is Melbourne Essendon Airport, 105.5 nm (195.4 km) WNW. Retrieved 2019/03/23 08:00 UTC (5 minutes ago):

YMEN 230800Z AUTO 17015KT 9999 // BKN071 BKN086 20/17 Q1007

TAF (pilot weather forecast)

Forecast is more than 6 hours old.

Closest forecast is Wangaratta Airport, 108.5 nm (201.0 km) NNW. Retrieved 2019/03/23 02:03 UTC (6 hours ago):

TAF YWGT 230059Z 2302/2314 06012KT CAVOK